Time;durP1;ratioP1;P1;durP2;ratioP2;P2;SDS_P1;SDS_P2;PMS_P1;PMS_P2;Temp;Humidity;BMP_temperature;BMP_pressure;BME280_temperature;BME280_humidity;BME280_pressure;Samples;Min_cycle;Max_cycle;Signal;HPM_P1;HPM_P2
2022/06/04 13:11:46;;;;;;;0.20;0.20;;;;;;;16.32;27.43;98418.88;5108822;27;20347;-64
2022/06/04 13:14:43;;;;;;;0.22;0.22;;;;;;;16.38;27.89;98406.66;5088110;28;20147;-63
2022/06/04 13:17:42;;;;;;;0.60;0.60;;;;;;;16.46;28.29;98414.41;5088163;28;20036;-68
2022/06/04 13:20:08;;;;;;;0.17;0.17;;;;;;;16.50;28.65;98413.81;5104489;28;20040;-65
2022/06/04 13:22:51;;;;;;;0.20;0.20;;;;;;;16.55;28.62;98402.69;5088587;28;20387;-66
2022/06/04 13:25:21;;;;;;;0.10;0.10;;;;;;;16.58;29.01;98402.16;5099053;28;20093;-64
2022/06/04 13:27:52;;;;;;;0.22;0.22;;;;;;;16.58;29.12;98402.16;5088481;28;20028;-64
2022/06/04 13:30:22;;;;;;;0.17;0.17;;;;;;;16.61;29.36;98398.81;5088589;28;20134;-69
2022/06/04 13:32:48;;;;;;;0.20;0.20;;;;;;;16.61;29.03;98398.81;5088380;28;20035;-66
2022/06/04 13:35:23;;;;;;;0.10;0.10;;;;;;;16.60;29.10;98400.75;5088647;28;20039;-63
2022/06/04 13:37:52;;;;;;;0.20;0.20;;;;;;;16.65;29.02;98391.56;5088426;28;20032;-63
2022/06/04 13:40:27;;;;;;;0.10;0.10;;;;;;;16.71;28.96;98396.00;5088332;28;20024;-64
2022/06/04 13:42:56;;;;;;;0.28;0.28;;;;;;;16.75;29.28;98390.69;5087163;28;20139;-63
2022/06/04 13:45:31;;;;;;;0.55;0.55;;;;;;;16.77;29.35;98391.25;5085789;28;20246;-62
2022/06/04 13:48:12;;;;;;;0.40;0.32;;;;;;;16.76;28.95;98384.88;5086957;28;20077;-66
2022/06/04 13:50:51;;;;;;;0.20;0.20;;;;;;;16.77;29.01;98380.16;5086593;28;20580;-65
2022/06/04 13:53:21;;;;;;;0.15;0.15;;;;;;;16.80;29.06;98388.72;5095058;28;20077;-67
2022/06/04 13:55:52;;;;;;;0.20;0.20;;;;;;;16.84;29.21;98397.28;5090446;28;20055;-64
2022/06/04 13:58:22;;;;;;;0.10;0.10;;;;;;;16.87;28.99;98382.91;5086720;28;20032;-62
2022/06/04 14:00:58;;;;;;;0.20;0.20;;;;;;;16.88;28.90;98384.53;5086338;28;20070;-63
2022/06/04 14:03:33;;;;;;;0.13;0.13;;;;;;;16.89;29.08;98388.16;5086956;28;20048;-63
2022/06/04 14:05:59;;;;;;;0.10;0.10;;;;;;;16.86;29.15;98391.47;5096245;28;20035;-64
2022/06/04 14:08:31;;;;;;;0.20;0.20;;;;;;;16.88;28.93;98380.97;5100505;28;20028;-65
2022/06/04 14:11:03;;;;;;;0.20;0.20;;;;;;;16.87;29.00;98384.81;5108281;28;20059;-63
2022/06/04 14:13:34;;;;;;;0.13;0.13;;;;;;;16.82;29.14;98385.66;5107588;28;20066;-62
2022/06/04 14:16:24;;;;;;;0.52;0.20;;;;;;;16.74;29.02;98378.78;5101319;28;20039;-63
2022/06/04 14:19:12;;;;;;;0.10;0.10;;;;;;;16.67;29.35;98383.81;5103271;28;20040;-64
2022/06/04 14:21:49;;;;;;;0.20;0.20;;;;;;;16.60;29.40;98374.97;5094365;28;20077;-63
2022/06/04 14:24:42;;;;;;;0.20;0.20;;;;;;;16.57;29.43;98372.78;5091310;28;20131;-63
2022/06/04 14:27:08;;;;;;;0.22;0.22;;;;;;;16.55;29.09;98383.31;5088938;28;20548;-65
2022/06/04 14:29:49;;;;;;;0.10;0.10;;;;;;;16.55;29.22;98381.38;5091824;28;20060;-67
2022/06/04 14:32:31;;;;;;;0.30;0.30;;;;;;;16.76;29.04;98365.47;5092304;28;20028;-64
2022/06/04 14:35:00;;;;;;;0.20;0.20;;;;;;;16.69;29.15;98384.34;5091602;28;20075;-61
2022/06/04 14:37:27;;;;;;;0.15;0.15;;;;;;;16.56;29.19;98365.56;5091509;28;20047;-62
2022/06/04 14:39:57;;;;;;;0.50;0.50;;;;;;;16.45;29.10;98373.94;5090877;28;20050;-61
2022/06/04 14:43:01;;;;;;;0.20;0.20;;;;;;;16.38;29.50;98365.09;5088837;28;20031;-61
2022/06/04 14:45:39;;;;;;;0.10;0.10;;;;;;;16.32;29.57;98377.31;5089158;28;20023;-61
2022/06/04 14:48:32;;;;;;;0.10;0.10;;;;;;;16.17;29.27;98369.09;5090506;28;20032;-61
2022/06/04 14:51:41;;;;;;;0.40;0.40;;;;;;;16.06;29.67;98363.59;5090388;28;20047;-62
2022/06/04 14:54:08;;;;;;;0.20;0.20;;;;;;;15.98;29.86;98366.09;5088934;28;20414;-62
2022/06/04 14:57:07;;;;;;;0.30;0.30;;;;;;;15.86;29.60;98370.00;5090129;28;20032;-66
2022/06/04 14:59:43;;;;;;;0.47;0.47;;;;;;;15.77;29.77;98375.25;5091558;28;20052;-61
2022/06/04 15:02:15;;;;;;;0.30;0.30;;;;;;;15.69;29.85;98364.72;5091158;28;20143;-62
2022/06/04 15:04:58;;;;;;;0.10;0.10;;;;;;;15.59;29.98;98359.19;5091315;28;20032;-60
2022/06/04 15:07:57;;;;;;;0.20;0.20;;;;;;;15.54;30.13;98365.56;5093193;28;20165;-64
2022/06/04 15:10:25;;;;;;;0.20;0.20;;;;;;;15.41;30.22;98368.91;5092839;28;20060;-62
2022/06/04 15:13:10;;;;;;;0.20;0.20;;;;;;;15.32;30.26;98370.59;5093205;28;20040;-65
2022/06/04 15:15:54;;;;;;;0.20;0.20;;;;;;;15.19;30.41;98364.50;5091754;28;20063;-62
2022/06/04 15:18:34;;;;;;;0.22;0.22;;;;;;;15.11;30.36;98364.22;5091613;28;20103;-62
2022/06/04 15:21:11;;;;;;;0.10;0.10;;;;;;;15.04;30.22;98368.06;5092790;28;20024;-63
2022/06/04 15:24:05;;;;;;;0.30;0.30;;;;;;;15.00;30.55;98369.75;5037851;27;20056;-63
2022/06/04 15:26:41;;;;;;;0.47;0.47;;;;;;;14.97;30.53;98369.44;5032109;28;20492;-63
2022/06/04 15:35:20;;;;;;;16.85;0.95;;;;;;;14.77;30.58;98379.38;5027657;28;20400;-62
2022/06/04 15:38:12;;;;;;;0.25;0.25;;;;;;;14.71;30.74;98381.28;5019123;28;20554;-63
2022/06/04 15:40:56;;;;;;;1.83;0.43;;;;;;;14.66;30.68;98383.22;5012491;28;20038;-62
2022/06/04 15:43:31;;;;;;;1.35;0.73;;;;;;;14.57;30.94;98373.75;5012923;28;20399;-62
2022/06/04 15:46:18;;;;;;;0.20;0.20;;;;;;;14.53;30.78;98385.34;5012349;28;20037;-63
2022/06/04 15:48:47;;;;;;;0.30;0.30;;;;;;;14.51;31.11;98390.31;5025471;28;20037;-61
2022/06/04 15:57:33;;;;;;;0.52;0.25;;;;;;;14.33;31.22;98390.81;5031101;28;20052;-63
2022/06/04 16:00:10;;;;;;;0.75;0.43;;;;;;;14.27;31.29;98389.94;5031957;28;20033;-62
2022/06/04 16:02:37;;;;;;;0.73;0.73;;;;;;;14.20;31.41;98381.91;5031981;28;20033;-64
2022/06/04 16:05:29;;;;;;;2.20;0.50;;;;;;;14.18;31.46;98388.81;5032021;28;20566;-63
2022/06/04 16:08:03;;;;;;;1.23;1.13;;;;;;;14.11;31.68;98375.25;5031220;28;20037;-63
2022/06/04 16:10:34;;;;;;;0.60;0.52;;;;;;;14.07;31.54;98387.09;5031839;28;20487;-63
2022/06/04 16:13:12;;;;;;;0.98;0.63;;;;;;;14.01;31.92;98391.75;5031099;28;20091;-62
2022/06/04 16:15:41;;;;;;;0.85;0.52;;;;;;;13.94;31.95;98404.94;5030976;28;20033;-63
2022/06/04 16:18:30;;;;;;;0.30;0.30;;;;;;;13.84;31.97;98395.53;5031690;28;20037;-63
2022/06/04 16:21:47;;;;;;;2.53;0.85;;;;;;;13.74;32.16;98392.69;5031573;28;20029;-64
2022/06/04 16:24:29;;;;;;;0.70;0.68;;;;;;;13.64;32.47;98387.94;4988114;28;20071;-63
2022/06/04 16:26:58;;;;;;;1.02;0.70;;;;;;;13.57;32.48;98394.78;5031377;28;20035;-64
2022/06/04 16:29:32;;;;;;;0.52;0.52;;;;;;;13.50;32.78;98397.78;5031374;28;20030;-63
2022/06/04 16:32:17;;;;;;;;;;;;;;;13.39;32.68;98388.59;5031962;28;20037;-63
2022/06/04 16:35:00;;;;;;;0.82;0.55;;;;;;;13.27;32.85;98388.72;5031518;28;19971;-66
2022/06/04 16:37:30;;;;;;;0.63;0.43;;;;;;;13.17;33.05;98390.59;5031258;28;20040;-62
2022/06/04 16:39:57;;;;;;;2.30;0.88;;;;;;;13.09;33.11;98386.38;5031273;28;20082;-63
2022/06/04 16:42:51;;;;;;;0.20;0.20;;;;;;;13.03;33.17;98381.91;5031135;28;20021;-65
2022/06/04 16:45:22;;;;;;;0.55;0.55;;;;;;;12.92;33.38;98384.56;5023430;28;20502;-64
2022/06/04 16:47:53;;;;;;;1.27;0.40;;;;;;;12.85;33.58;98391.38;5030287;28;20045;-63
2022/06/04 16:50:21;;;;;;;0.30;0.30;;;;;;;12.77;33.42;98379.72;5030967;28;20056;-66
2022/06/04 16:52:52;;;;;;;0.73;0.45;;;;;;;12.69;33.63;98382.09;5030980;28;20041;-65
2022/06/04 16:55:21;;;;;;;0.20;0.20;;;;;;;12.64;33.85;98377.38;5031347;28;20118;-65
2022/06/04 16:57:48;;;;;;;0.40;0.40;;;;;;;12.57;33.98;98371.25;5030897;28;20056;-63
2022/06/04 17:00:19;;;;;;;0.40;0.40;;;;;;;12.51;33.87;98375.03;5030878;28;20515;-63
2022/06/04 17:03:21;;;;;;;0.20;0.20;;;;;;;12.46;33.95;98378.56;5031341;28;20116;-64
2022/06/04 17:06:06;;;;;;;0.30;0.30;;;;;;;12.39;34.11;98372.44;5046240;28;20385;-63
2022/06/04 17:08:42;;;;;;;0.43;0.40;;;;;;;12.33;34.04;98367.97;5030714;28;20037;-64
2022/06/04 17:11:12;;;;;;;0.20;0.20;;;;;;;12.25;34.35;98370.06;5030724;28;20436;-63
2022/06/04 17:13:38;;;;;;;0.20;0.20;;;;;;;12.19;34.41;98384.00;5030198;28;20056;-66
2022/06/04 17:16:41;;;;;;;0.40;0.40;;;;;;;12.14;34.42;98378.47;5031946;28;20114;-66
2022/06/04 17:19:18;;;;;;;1.50;0.45;;;;;;;12.05;34.57;98378.06;5031490;28;20091;-65
2022/06/04 17:22:27;;;;;;;0.45;0.45;;;;;;;11.96;34.61;98374.94;5030782;28;20048;-64
2022/06/04 17:25:14;;;;;;;0.20;0.20;;;;;;;11.88;34.76;98375.31;5031100;28;20534;-63
2022/06/04 17:27:51;;;;;;;0.30;0.30;;;;;;;11.81;34.76;98377.44;5031273;28;20037;-63
2022/06/04 17:30:32;;;;;;;0.30;0.30;;;;;;;11.76;34.79;98386.44;5029481;28;20037;-64
2022/06/04 17:33:13;;;;;;;0.50;0.40;;;;;;;11.70;34.93;98387.44;5031309;28;20037;-64
2022/06/04 17:36:02;;;;;;;0.63;0.63;;;;;;;11.64;35.12;98391.22;5031327;28;20080;-63
2022/06/04 17:38:31;;;;;;;0.30;0.30;;;;;;;11.57;35.25;98386.72;5031027;28;20068;-63
2022/06/04 17:41:10;;;;;;;0.20;0.20;;;;;;;11.52;35.27;98385.81;5030946;28;20041;-62
2022/06/04 17:43:35;;;;;;;0.20;0.20;;;;;;;11.45;35.32;98388.72;5031013;28;20032;-62
2022/06/04 17:46:01;;;;;;;0.30;0.30;;;;;;;11.42;35.39;98391.97;5031201;28;20403;-62
2022/06/04 17:48:27;;;;;;;0.20;0.20;;;;;;;11.39;35.35;98389.72;5031656;28;20033;-63
2022/06/04 17:50:52;;;;;;;0.25;0.25;;;;;;;11.35;35.57;98383.91;5031005;28;20048;-62
2022/06/04 17:53:18;;;;;;;0.30;0.30;;;;;;;11.30;35.63;98381.06;5030638;28;20071;-63
2022/06/04 17:55:44;;;;;;;0.35;0.35;;;;;;;11.27;35.70;98389.81;5029432;28;20120;-63
2022/06/04 17:58:10;;;;;;;0.20;0.20;;;;;;;11.24;35.78;98392.25;5034576;28;20117;-63
2022/06/04 18:00:37;;;;;;;6.72;0.47;;;;;;;11.21;35.94;98377.09;5034603;28;20034;-60
2022/06/04 18:03:04;;;;;;;0.20;0.20;;;;;;;11.20;36.03;98381.75;5034329;28;20064;-64
2022/06/04 18:05:33;;;;;;;0.40;0.38;;;;;;;11.16;36.08;98383.34;5034465;28;20514;-63
2022/06/04 18:07:59;;;;;;;0.35;0.28;;;;;;;11.11;36.00;98385.97;5034263;28;20033;-63
2022/06/04 18:10:26;;;;;;;0.28;0.28;;;;;;;11.07;36.15;98387.59;5033902;28;20056;-63
2022/06/04 18:12:54;;;;;;;0.22;0.22;;;;;;;11.03;36.28;98386.41;5034508;28;20065;-64
2022/06/04 18:15:21;;;;;;;0.20;0.20;;;;;;;10.97;36.56;98384.66;5034775;28;20140;-64
2022/06/04 18:17:47;;;;;;;0.30;0.30;;;;;;;10.90;36.42;98386.72;5035316;28;20029;-63
2022/06/04 18:20:13;;;;;;;0.20;0.20;;;;;;;10.86;36.66;98378.13;5034964;28;20128;-64
2022/06/04 18:22:39;;;;;;;0.20;0.20;;;;;;;10.79;36.60;98386.53;5026969;28;20069;-67
2022/06/04 18:25:45;;;;;;;0.22;0.22;;;;;;;10.78;36.88;98384.03;5029270;28;20071;-61
2022/06/04 18:28:50;;;;;;;0.28;0.28;;;;;;;10.72;36.71;98382.25;5050241;28;20030;-61
2022/06/04 18:31:55;;;;;;;0.45;0.45;;;;;;;10.67;36.75;98383.00;5019619;28;20108;-62
2022/06/04 18:41:47;;;;;;;0.30;0.30;;;;;;;10.52;36.85;98378.88;5016995;28;20048;-65
2022/06/04 18:55:05;;;;;;;0.28;0.28;;;;;;;10.31;37.13;98382.28;5014140;28;20084;-65
2022/06/04 18:58:11;;;;;;;0.43;0.43;;;;;;;10.24;37.28;98376.09;5014555;28;20511;-64
2022/06/04 19:01:16;;;;;;;0.63;0.43;;;;;;;10.20;37.41;98380.41;5014476;28;20030;-63
2022/06/04 19:04:02;;;;;;;;;;;;;;;10.13;37.26;98384.13;5014796;28;20449;-65
2022/06/04 19:13:56;;;;;;;0.47;0.30;;;;;;;9.95;37.64;98378.78;5014413;28;20099;-63
2022/06/04 19:27:15;;;;;;;0.20;0.20;;;;;;;9.80;37.87;98363.69;5013989;28;20168;-62
2022/06/04 19:30:04;;;;;;;;;;;;;;;9.76;37.77;98365.25;5014112;28;20080;-61
2022/06/04 19:33:10;;;;;;;0.25;0.25;;;;;;;9.72;37.85;98361.31;5014074;28;19949;-62
2022/06/04 19:35:55;;;;;;;;;;;;;;;9.68;37.86;98362.88;5014202;28;20114;-61
2022/06/04 19:42:23;;;;;;;0.20;0.20;;;;;;;9.67;37.93;98363.09;5016132;28;20053;-65
2022/06/04 19:45:08;;;;;;;;;;;;;;;9.63;37.91;98366.31;5013497;28;20096;-63
2022/06/04 19:51:37;;;;;;;0.28;0.28;;;;;;;9.60;38.09;98369.56;5013038;28;20048;-64
2022/06/04 19:58:06;;;;;;;0.30;0.30;;;;;;;9.52;38.28;98358.13;5013738;28;20479;-64
2022/06/04 20:01:12;;;;;;;0.20;0.20;;;;;;;9.48;38.44;98363.22;5028793;28;20038;-62
2022/06/04 20:03:57;;;;;;;;;;;;;;;9.47;38.31;98367.88;5013822;28;20044;-66
2022/06/04 20:07:03;;;;;;;0.25;0.25;;;;;;;9.53;38.17;98357.06;5016166;28;19965;-64
2022/06/04 20:10:08;;;;;;;0.30;0.30;;;;;;;9.65;37.91;98357.88;5012833;28;20449;-63
2022/06/04 20:12:54;;;;;;;;;;;;;;;9.70;37.87;98354.41;5028609;28;20052;-64
2022/06/04 20:19:21;;;;;;;0.20;0.20;;;;;;;9.62;38.09;98364.66;5012455;28;20056;-63
2022/06/04 20:28:56;;;;;;;;;;;;;;;9.30;38.71;98355.97;5013387;28;20416;-63
2022/06/04 21:05:51;;;;;;;0.20;0.20;;;;;;;9.33;38.82;98357.41;5014763;28;20499;-62
2022/06/04 21:08:37;;;;;;;;;;;;;;;9.22;38.98;98364.56;5012774;28;20038;-62
